createdAt,value
2022-12-15T00:01:04.447Z,88.69
2022-12-15T00:03:52.334Z,89.09
2022-12-15T00:06:38.885Z,89.43
2022-12-15T00:09:30.928Z,89.04
2022-12-15T00:12:17.811Z,88.88
2022-12-15T00:15:03.132Z,89.05
2022-12-15T00:17:59.486Z,89.28
2022-12-15T00:20:46.028Z,89.08
2022-12-15T00:23:34.311Z,88.91
2022-12-15T00:26:23.015Z,89.26
2022-12-15T00:29:08.579Z,89.34
2022-12-15T00:31:54.717Z,89.78
2022-12-15T00:34:42.404Z,90.06
2022-12-15T00:37:29.841Z,91.60
2022-12-15T00:39:59.521Z,92.48
2022-12-15T00:42:28.809Z,92.12
2022-12-15T00:44:59.570Z,91.80
2022-12-15T00:47:29.168Z,92.25
2022-12-15T00:50:14.876Z,92.14
2022-12-15T00:53:04.954Z,92.52
2022-12-15T00:55:54.421Z,93.56
2022-12-15T00:58:39.802Z,93.63
2022-12-15T01:01:28.394Z,93.81
2022-12-15T01:04:14.378Z,93.89
2022-12-15T01:06:59.722Z,94.25
2022-12-15T01:09:52.359Z,94.54
2022-12-15T01:12:37.702Z,94.48
2022-12-15T01:15:23.193Z,94.23
2022-12-15T01:18:08.591Z,94.47
2022-12-15T01:20:36.574Z,94.79
2022-12-15T01:23:13.595Z,94.38
2022-12-15T01:25:43.057Z,94.40
2022-12-15T01:28:11.670Z,94.02
2022-12-15T01:30:39.236Z,94.12
2022-12-15T01:33:09.905Z,94.01
2022-12-15T01:35:39.947Z,94.29
2022-12-15T01:38:07.396Z,94.08
2022-12-15T01:40:47.258Z,93.59
2022-12-15T01:43:17.164Z,93.33
2022-12-15T01:45:52.759Z,93.23
2022-12-15T01:48:44.486Z,93.21
2022-12-15T01:51:18.026Z,93.35
2022-12-15T01:53:54.242Z,92.54
2022-12-15T01:56:23.576Z,92.18
2022-12-15T01:58:53.933Z,92.38
2022-12-15T02:01:25.446Z,92.33
2022-12-15T02:03:53.029Z,92.11
2022-12-15T02:06:22.297Z,91.74
2022-12-15T02:08:53.586Z,92.28
2022-12-15T02:11:43.071Z,91.23
2022-12-15T02:14:12.408Z,91.57
2022-12-15T02:16:50.527Z,91.16
2022-12-15T02:19:38.112Z,91.33
2022-12-15T02:22:15.371Z,91.20
2022-12-15T02:25:07.433Z,90.62
2022-12-15T02:27:53.719Z,90.67
2022-12-15T02:30:26.541Z,91.11
2022-12-15T02:33:24.154Z,91.38
2022-12-15T02:36:13.407Z,90.75
2022-12-15T02:38:41.981Z,90.88
2022-12-15T02:41:54.744Z,90.58
2022-12-15T02:44:35.966Z,90.74
2022-12-15T02:47:13.128Z,90.76
2022-12-15T02:49:58.578Z,90.56
2022-12-15T02:52:35.250Z,91.05
2022-12-15T02:55:24.749Z,91.06
2022-12-15T02:58:03.495Z,90.88
2022-12-15T03:00:35.943Z,91.06
2022-12-15T03:03:03.260Z,90.86
2022-12-15T03:05:32.572Z,90.92
2022-12-15T03:08:04.514Z,90.86
2022-12-15T03:10:34.013Z,91.03
2022-12-15T03:13:01.088Z,90.83
2022-12-15T03:15:35.018Z,90.82
2022-12-15T03:18:02.605Z,90.58
2022-12-15T03:20:29.615Z,90.89
2022-12-15T03:22:56.372Z,91.23
2022-12-15T03:25:23.126Z,90.58
2022-12-15T03:27:49.919Z,90.47
2022-12-15T03:30:19.432Z,90.25
2022-12-15T03:32:47.240Z,90.12
2022-12-15T03:35:14.228Z,90.51
2022-12-15T03:37:44.581Z,90.30
2022-12-15T03:40:13.964Z,90.93
2022-12-15T03:42:48.619Z,90.09
2022-12-15T03:45:23.776Z,90.12
2022-12-15T03:47:54.446Z,90.47
2022-12-15T03:50:24.558Z,90.13
2022-12-15T03:52:57.046Z,90.19
2022-12-15T03:55:24.862Z,89.66
2022-12-15T03:57:52.850Z,90.31
2022-12-15T04:00:24.587Z,89.81
2022-12-15T04:02:53.101Z,89.94
2022-12-15T04:05:29.595Z,90.30
2022-12-15T04:07:59.393Z,90.82
2022-12-15T04:10:33.574Z,89.88
2022-12-15T04:13:06.082Z,90.38
2022-12-15T04:15:36.048Z,89.97
2022-12-15T04:18:06.178Z,90.21
2022-12-15T04:20:33.292Z,89.52
2022-12-15T04:23:01.388Z,90.34
2022-12-15T04:25:46.886Z,90.39
2022-12-15T04:28:32.538Z,90.07
2022-12-15T04:31:32.632Z,90.65
2022-12-15T04:34:29.625Z,90.85
2022-12-15T04:37:15.904Z,90.56
2022-12-15T04:40:07.642Z,90.60
2022-12-15T04:42:54.781Z,89.85
2022-12-15T04:45:42.856Z,90.00
2022-12-15T04:48:29.821Z,90.21
2022-12-15T04:51:18.446Z,90.26
2022-12-15T04:54:04.607Z,90.62
2022-12-15T04:56:54.627Z,90.64
2022-12-15T04:59:48.273Z,90.82
2022-12-15T05:02:34.109Z,90.67
2022-12-15T05:05:23.270Z,90.59
2022-12-15T05:08:11.876Z,90.35
2022-12-15T05:10:57.311Z,90.67
2022-12-15T05:13:42.530Z,91.00
2022-12-15T05:16:27.970Z,90.91
2022-12-15T05:19:14.608Z,90.71
2022-12-15T05:22:02.963Z,90.77
2022-12-15T05:24:48.110Z,90.95
2022-12-15T05:27:33.429Z,91.35
2022-12-15T05:30:18.679Z,91.62
2022-12-15T05:32:45.984Z,91.79
2022-12-15T05:35:17.087Z,91.03
2022-12-15T05:37:43.830Z,91.71
2022-12-15T05:40:11.908Z,91.87
2022-12-15T05:42:38.475Z,91.39
2022-12-15T05:45:07.876Z,91.37
2022-12-15T05:47:34.663Z,91.70
2022-12-15T05:50:04.009Z,91.58
2022-12-15T05:52:30.891Z,91.17
2022-12-15T05:54:57.668Z,90.81
2022-12-15T05:57:26.999Z,91.12
2022-12-15T05:59:53.891Z,90.18
2022-12-15T06:02:22.708Z,90.20
2022-12-15T06:04:49.491Z,90.33
2022-12-15T06:07:19.717Z,91.80
2022-12-15T06:09:48.885Z,90.93
2022-12-15T06:12:19.899Z,91.24
2022-12-15T06:14:49.889Z,91.01
2022-12-15T06:17:17.275Z,91.09
2022-12-15T06:19:44.205Z,91.21
2022-12-15T06:22:10.959Z,90.82
2022-12-15T06:24:42.834Z,91.47
2022-12-15T06:27:12.749Z,91.42
2022-12-15T06:29:39.565Z,91.84
2022-12-15T06:34:49.465Z,92.50
2022-12-15T06:37:16.686Z,92.13
2022-12-15T06:39:43.648Z,92.21
2022-12-15T06:42:10.817Z,92.46
2022-12-15T06:44:40.542Z,91.81
2022-12-15T06:47:12.124Z,92.29
2022-12-15T06:49:39.330Z,92.47
2022-12-15T06:52:10.733Z,92.54
2022-12-15T06:54:38.731Z,92.81
2022-12-15T06:57:05.934Z,92.69
2022-12-15T06:59:33.684Z,93.03
2022-12-15T07:02:04.014Z,92.78
2022-12-15T07:04:35.337Z,92.87
2022-12-15T07:07:05.847Z,93.22
2022-12-15T07:09:35.324Z,92.74
2022-12-15T07:12:05.483Z,92.44
2022-12-15T07:14:32.532Z,93.10
2022-12-15T07:16:59.260Z,93.10
2022-12-15T07:19:28.159Z,92.44
2022-12-15T07:21:57.929Z,93.08
2022-12-15T07:24:24.700Z,93.74
2022-12-15T07:26:54.691Z,93.64
2022-12-15T07:29:23.633Z,94.28
2022-12-15T07:31:50.814Z,94.07
2022-12-15T07:34:20.471Z,94.12
2022-12-15T07:36:52.500Z,94.69
2022-12-15T07:39:19.665Z,94.91
2022-12-15T07:41:47.009Z,95.68
2022-12-15T07:44:19.553Z,94.93
2022-12-15T07:46:49.347Z,94.88
2022-12-15T07:49:45.122Z,95.33
2022-12-15T07:52:22.920Z,95.73
2022-12-15T07:54:50.135Z,95.68
2022-12-15T07:57:18.246Z,95.43
2022-12-15T07:59:45.113Z,95.30
2022-12-15T08:02:19.512Z,95.33
2022-12-15T08:04:48.551Z,95.70
2022-12-15T08:07:17.738Z,96.28
2022-12-15T08:09:48.443Z,96.35
2022-12-15T08:12:20.019Z,96.49
2022-12-15T08:15:49.308Z,96.32
2022-12-15T08:18:19.103Z,96.34
2022-12-15T08:20:50.338Z,95.73
2022-12-15T08:23:18.839Z,96.19
2022-12-15T08:25:46.175Z,96.13
2022-12-15T08:28:15.510Z,96.62
2022-12-15T08:30:43.062Z,96.09
2022-12-15T08:33:13.004Z,96.42
2022-12-15T08:35:57.467Z,96.02
2022-12-15T08:38:24.795Z,96.34
2022-12-15T08:40:52.853Z,96.11
2022-12-15T08:43:19.605Z,97.07
2022-12-15T08:45:47.253Z,96.83
2022-12-15T08:48:14.182Z,97.29
2022-12-15T08:50:45.811Z,97.22
2022-12-15T08:56:08.534Z,97.39
2022-12-15T08:58:35.173Z,97.02
2022-12-15T09:01:10.189Z,97.04
2022-12-15T09:03:40.892Z,97.12
2022-12-15T09:06:24.826Z,97.18
2022-12-15T09:08:58.626Z,97.57
2022-12-15T09:11:32.146Z,97.23
2022-12-15T09:14:27.096Z,97.19
2022-12-15T09:16:55.970Z,96.62
2022-12-15T09:19:23.985Z,96.64
2022-12-15T09:21:59.820Z,97.15
2022-12-15T09:25:03.182Z,97.07
2022-12-15T09:27:39.756Z,97.31
2022-12-15T09:30:38.147Z,97.39
2022-12-15T09:33:05.317Z,97.15
2022-12-15T09:35:35.370Z,97.10
2022-12-15T09:38:05.895Z,96.89
2022-12-15T09:40:50.756Z,96.98
2022-12-15T09:43:40.049Z,97.24
2022-12-15T09:46:50.712Z,97.26
2022-12-15T09:49:54.715Z,97.42
2022-12-15T09:52:48.798Z,97.44
2022-12-15T09:55:29.093Z,97.53
2022-12-15T09:58:27.404Z,97.41
2022-12-15T10:01:15.135Z,97.48
2022-12-15T10:03:54.808Z,97.60
2022-12-15T10:07:03.546Z,97.44
2022-12-15T10:09:33.069Z,97.31
2022-12-15T10:12:05.511Z,97.14
2022-12-15T10:14:50.072Z,97.52
2022-12-15T10:17:44.683Z,97.59
2022-12-15T10:20:35.911Z,97.87
2022-12-15T10:23:20.563Z,97.89
2022-12-15T10:26:20.445Z,97.83
2022-12-15T10:29:23.911Z,97.75
2022-12-15T10:32:02.696Z,97.66
2022-12-15T10:34:35.444Z,97.59
2022-12-15T10:37:05.359Z,97.58
2022-12-15T10:39:50.307Z,97.87
2022-12-15T10:45:39.669Z,98.49
2022-12-15T10:48:22.926Z,98.63
2022-12-15T10:51:32.913Z,98.61
2022-12-15T10:54:24.454Z,98.61
2022-12-15T10:57:13.114Z,98.59
2022-12-15T11:00:35.504Z,98.52
2022-12-15T11:07:35.612Z,97.96
2022-12-15T11:11:07.776Z,98.02
2022-12-15T11:13:36.176Z,98.00
2022-12-15T11:16:27.115Z,97.74
2022-12-15T11:19:50.144Z,97.75
2022-12-15T11:23:04.475Z,97.71
2022-12-15T11:26:34.150Z,97.41
2022-12-15T11:29:43.989Z,97.72
2022-12-15T11:32:22.686Z,97.75
2022-12-15T11:35:05.957Z,97.64
2022-12-15T11:37:40.428Z,97.43
2022-12-15T11:40:33.409Z,96.33
2022-12-15T11:43:09.883Z,96.04
2022-12-15T11:45:55.757Z,95.55
2022-12-15T11:48:33.192Z,94.97
2022-12-15T11:51:24.449Z,94.69
2022-12-15T11:54:09.643Z,93.71
2022-12-15T11:57:03.628Z,93.66
2022-12-15T11:59:45.907Z,92.96
2022-12-15T12:03:14.487Z,92.65
2022-12-15T12:06:17.526Z,91.79
2022-12-15T12:09:12.382Z,91.99
2022-12-15T12:12:05.411Z,92.56
2022-12-15T12:14:53.850Z,92.56
2022-12-15T12:18:27.143Z,92.17
2022-12-15T12:21:05.322Z,92.13
2022-12-15T12:24:10.087Z,92.05
2022-12-15T12:26:58.735Z,91.54
2022-12-15T12:29:51.062Z,91.34
2022-12-15T12:32:45.520Z,90.38
2022-12-15T12:35:48.877Z,90.53
2022-12-15T12:38:35.218Z,90.31
2022-12-15T12:41:28.744Z,90.60
2022-12-15T12:44:02.953Z,90.35
2022-12-15T12:46:39.320Z,90.75
2022-12-15T12:49:37.065Z,91.13
2022-12-15T12:55:58.635Z,91.00
2022-12-15T12:58:53.178Z,91.73
2022-12-15T13:02:04.652Z,91.73
2022-12-15T13:04:40.797Z,91.70
2022-12-15T13:07:46.072Z,91.08
2022-12-15T13:10:35.091Z,90.90
2022-12-15T13:13:36.089Z,91.72
2022-12-15T13:16:30.456Z,90.78
2022-12-15T13:19:15.604Z,90.89
2022-12-15T13:22:29.257Z,90.56
2022-12-15T13:25:00.788Z,90.25
2022-12-15T13:27:41.014Z,90.93
2022-12-15T13:30:10.244Z,91.28
2022-12-15T13:32:42.737Z,90.04
2022-12-15T13:35:47.472Z,90.00
2022-12-15T13:38:19.616Z,90.36
2022-12-15T13:40:58.282Z,90.63
2022-12-15T13:43:34.465Z,90.17
2022-12-15T13:46:30.397Z,89.94
2022-12-15T13:49:28.675Z,89.64
2022-12-15T13:53:16.295Z,89.41
2022-12-15T13:55:40.260Z,89.88
2022-12-15T13:58:18.841Z,90.22
2022-12-15T14:01:05.852Z,90.00
2022-12-15T14:03:39.720Z,90.22
2022-12-15T14:06:17.585Z,90.78
2022-12-15T14:08:51.069Z,90.89
2022-12-15T14:11:53.192Z,90.99
2022-12-15T15:03:04.066Z,97.98
2022-12-15T19:00:22.208Z,97.12
2022-12-15T19:05:57.359Z,96.89
2022-12-15T19:08:36.498Z,96.94
2022-12-15T19:11:46.841Z,97.46
2022-12-15T19:14:35.172Z,97.02
2022-12-15T19:17:35.765Z,96.92
2022-12-15T19:20:35.079Z,96.98
2022-12-15T19:23:03.500Z,97.04
2022-12-15T19:25:33.692Z,97.57
2022-12-15T19:28:01.549Z,97.26
2022-12-15T19:30:45.487Z,97.27
2022-12-15T19:33:21.885Z,97.23
2022-12-15T19:35:55.494Z,97.44
2022-12-15T19:38:33.418Z,97.31
2022-12-15T19:41:02.927Z,97.25
2022-12-15T19:43:31.030Z,97.40
2022-12-15T19:46:00.385Z,97.53
2022-12-15T19:48:29.081Z,97.85
2022-12-15T19:50:56.142Z,97.73
2022-12-15T19:53:30.864Z,97.62
2022-12-15T19:56:01.767Z,97.85
2022-12-15T19:58:39.663Z,97.58
2022-12-15T20:01:16.672Z,97.73
2022-12-15T20:03:53.254Z,97.62
2022-12-15T20:06:26.092Z,97.30
2022-12-15T20:09:01.408Z,97.29
2022-12-15T20:11:37.289Z,97.47
2022-12-15T20:14:20.135Z,97.12
2022-12-15T20:16:54.805Z,96.94
2022-12-15T20:19:25.746Z,97.34
2022-12-15T20:22:06.821Z,97.12
2022-12-15T20:24:43.593Z,97.08
2022-12-15T20:27:21.198Z,97.25
2022-12-15T20:30:08.356Z,97.07
2022-12-15T20:32:38.523Z,97.51
2022-12-15T20:38:55.007Z,97.45
2022-12-15T20:41:30.456Z,97.48
2022-12-15T20:44:35.598Z,97.50
2022-12-15T20:47:28.772Z,97.38
2022-12-15T20:54:20.308Z,97.39
2022-12-15T20:57:46.253Z,97.56
2022-12-15T21:00:43.977Z,97.50
2022-12-15T21:03:40.930Z,97.44
2022-12-15T21:06:19.422Z,97.30
2022-12-15T21:08:47.294Z,97.70
2022-12-15T21:11:29.268Z,97.82
2022-12-15T21:14:31.511Z,97.76
2022-12-15T21:17:05.554Z,97.41
2022-12-15T21:19:34.982Z,97.56
2022-12-15T21:22:04.042Z,97.67
2022-12-15T21:24:39.377Z,97.40
2022-12-15T21:27:19.240Z,97.75
2022-12-15T21:29:58.233Z,97.64
2022-12-15T21:32:40.006Z,97.70
2022-12-15T21:35:15.315Z,97.24
2022-12-15T21:37:52.427Z,97.43
2022-12-15T21:40:29.231Z,97.44
2022-12-15T21:43:25.526Z,96.99
2022-12-15T21:46:24.622Z,97.26
2022-12-15T21:49:14.579Z,97.16
2022-12-15T21:52:02.744Z,96.92
2022-12-15T21:54:37.252Z,97.10
2022-12-15T21:57:14.328Z,96.97
2022-12-15T21:59:47.988Z,97.07
2022-12-15T22:02:27.940Z,96.87
2022-12-15T22:05:02.546Z,96.59
2022-12-15T22:07:39.492Z,96.58
2022-12-15T22:10:13.589Z,96.76
2022-12-15T22:12:59.544Z,96.50
2022-12-15T22:16:17.832Z,96.46
2022-12-15T22:18:54.997Z,96.61
2022-12-15T22:21:24.965Z,96.80
2022-12-15T22:24:00.275Z,96.81
2022-12-15T22:26:34.472Z,96.39
2022-12-15T22:29:22.260Z,96.47
2022-12-15T22:32:18.942Z,96.37
2022-12-15T22:34:50.056Z,96.66
2022-12-15T22:37:19.909Z,96.53
2022-12-15T22:39:57.844Z,96.38
2022-12-15T22:42:26.523Z,96.47
2022-12-15T22:45:10.357Z,96.54
2022-12-15T22:47:41.074Z,96.40
2022-12-15T22:50:31.610Z,96.69
2022-12-15T22:53:04.806Z,95.93
2022-12-15T22:55:33.771Z,96.54
2022-12-15T22:58:22.691Z,96.36
2022-12-15T23:00:58.682Z,96.33
2022-12-15T23:03:32.344Z,96.44
2022-12-15T23:06:08.362Z,96.48
2022-12-15T23:08:39.486Z,96.39
2022-12-15T23:11:42.263Z,96.35
2022-12-15T23:14:15.128Z,96.23
2022-12-15T23:16:57.000Z,96.50
2022-12-15T23:19:28.784Z,96.64
2022-12-15T23:21:57.527Z,96.98
2022-12-15T23:24:24.899Z,97.01
2022-12-15T23:27:00.796Z,96.85
2022-12-15T23:29:42.193Z,96.97
2022-12-15T23:32:12.816Z,96.92
2022-12-15T23:34:44.103Z,96.87
2022-12-15T23:37:16.484Z,96.88
2022-12-15T23:39:52.645Z,96.75
2022-12-15T23:42:26.679Z,96.73
2022-12-15T23:45:04.194Z,96.84
2022-12-15T23:47:38.775Z,96.74
2022-12-15T23:50:12.984Z,97.05
2022-12-15T23:52:51.325Z,97.21
2022-12-15T23:55:26.931Z,97.24
2022-12-15T23:57:58.858Z,97.54
